This is the latest recevied weather packets stored in our database for station/object N6SPP. If no packets are shown the sender has not sent any weather packets the latest 10 day(s).
| Time | Temp. | Humidity | Pressure | Rain* | Wind** | Luminosity | Snow |
|---|---|---|---|---|---|---|---|
| 1777657384 | 22.78° C | 51% | 1016.3 hPa | 0 mm | - | 643 W/m² | - |
| 1777657082 | 22.22° C | 50% | 1016.5 hPa | 0 mm | - | 629 W/m² | - |
| 1777656779 | 21.67° C | 53% | 1016.4 hPa | 0 mm | - | 595 W/m² | - |
| 1777656474 | 21.67° C | 54% | 1016.5 hPa | 0 mm | - | 581 W/m² | - |
| 1777656170 | 22.22° C | 51% | 1016.5 hPa | 0 mm | - | 543 W/m² | - |
| 1777655866 | 22.22° C | 51% | 1016.3 hPa | 0 mm | - | 502 W/m² | - |
| 1777655563 | 21.67° C | 51% | 1016.2 hPa | 0 mm | - | 542 W/m² | - |
| 1777655260 | 22.22° C | 51% | 1016.2 hPa | 0 mm | - | 531 W/m² | - |
| 1777654957 | 22.78° C | 49% | 1016.4 hPa | 0 mm | - | 514 W/m² | - |
| 1777654654 | 21.67° C | 51% | 1016.6 hPa | 0 mm | - | 532 W/m² | - |
| 1777654352 | 21.67° C | 52% | 1016.2 hPa | 0 mm | - | 515 W/m² | - |
| 1777654049 | 21.11° C | 55% | 1016.3 hPa | 0 mm | - | 518 W/m² | - |
| 1777653746 | 21.11° C | 53% | 1016.2 hPa | 0 mm | - | 490 W/m² | - |
| 1777653442 | 21.67° C | 52% | 1016.4 hPa | 0 mm | - | 482 W/m² | - |
| 1777653140 | 21.11° C | 54% | 1016.4 hPa | 0 mm | - | 471 W/m² | - |
| 1777652835 | 21.11° C | 55% | 1016.3 hPa | 0 mm | - | 457 W/m² | - |
| 1777652532 | 20.56° C | 54% | 1016.2 hPa | 0 mm | - | 442 W/m² | - |
| 1777652229 | 21.11° C | 53% | 1016.1 hPa | 0 mm | - | 423 W/m² | - |
| 1777651927 | 21.11° C | 55% | 1016.1 hPa | 0 mm | - | 409 W/m² | - |
| 1777651622 | 20.56° C | 54% | 1016.3 hPa | 0 mm | - | 394 W/m² | - |
| 1777651320 | 19.44° C | 59% | 1016.2 hPa | 0 mm | - | 374 W/m² | - |
| 1777651017 | 19.44° C | 59% | 1016.1 hPa | 0 mm | - | 355 W/m² | - |
| 1777650714 | 19.44° C | 59% | 1016.2 hPa | 0 mm | - | 341 W/m² | - |
| 1777650411 | 18.89° C | 61% | 1016.2 hPa | 0 mm | - | 321 W/m² | - |
| 1777650108 | 18.89° C | 60% | 1016.1 hPa | 0 mm | - | 312 W/m² | - |
* Rain latest hour (hover to see other rain measurements)
** Current wind speed in m/s (hover to see current wind gust speed)